sensor_id;sensor_type;location;lat;lon;timestamp;P1;durP1;ratioP1;P2;durP2;ratioP2
16127;SDS011;8168;49.036;7.690;2022-11-30T00:00:00;16.80;;;7.87;;
16127;SDS011;8168;49.036;7.690;2022-11-30T00:02:31;15.40;;;6.97;;
16127;SDS011;8168;49.036;7.690;2022-11-30T00:05:01;10.37;;;6.77;;
16127;SDS011;8168;49.036;7.690;2022-11-30T00:07:32;14.80;;;7.67;;
16127;SDS011;8168;49.036;7.690;2022-11-30T00:10:03;16.30;;;7.17;;
16127;SDS011;8168;49.036;7.690;2022-11-30T00:12:34;17.10;;;6.70;;
16127;SDS011;8168;49.036;7.690;2022-11-30T00:15:05;16.63;;;7.30;;
16127;SDS011;8168;49.036;7.690;2022-11-30T00:17:36;15.80;;;7.00;;
16127;SDS011;8168;49.036;7.690;2022-11-30T00:20:07;15.03;;;6.60;;
16127;SDS011;8168;49.036;7.690;2022-11-30T00:22:38;13.90;;;7.13;;
16127;SDS011;8168;49.036;7.690;2022-11-30T00:25:09;14.77;;;7.40;;
16127;SDS011;8168;49.036;7.690;2022-11-30T00:27:40;15.70;;;7.37;;
16127;SDS011;8168;49.036;7.690;2022-11-30T00:30:10;11.90;;;6.40;;
16127;SDS011;8168;49.036;7.690;2022-11-30T00:32:41;18.30;;;7.60;;
16127;SDS011;8168;49.036;7.690;2022-11-30T00:35:12;18.33;;;7.10;;
16127;SDS011;8168;49.036;7.690;2022-11-30T00:37:43;18.17;;;6.80;;
16127;SDS011;8168;49.036;7.690;2022-11-30T00:40:13;13.37;;;6.87;;
16127;SDS011;8168;49.036;7.690;2022-11-30T00:42:44;16.77;;;6.80;;
16127;SDS011;8168;49.036;7.690;2022-11-30T00:45:15;15.87;;;7.10;;
16127;SDS011;8168;49.036;7.690;2022-11-30T00:47:45;14.30;;;5.93;;
16127;SDS011;8168;49.036;7.690;2022-11-30T00:50:16;17.40;;;6.97;;
16127;SDS011;8168;49.036;7.690;2022-11-30T00:52:47;19.70;;;8.47;;
16127;SDS011;8168;49.036;7.690;2022-11-30T00:55:17;15.00;;;7.43;;
16127;SDS011;8168;49.036;7.690;2022-11-30T00:57:48;14.87;;;6.30;;
16127;SDS011;8168;49.036;7.690;2022-11-30T01:00:18;13.50;;;6.20;;
16127;SDS011;8168;49.036;7.690;2022-11-30T01:02:55;19.27;;;7.40;;
16127;SDS011;8168;49.036;7.690;2022-11-30T01:05:28;16.67;;;6.33;;
16127;SDS011;8168;49.036;7.690;2022-11-30T01:07:59;13.63;;;6.23;;
16127;SDS011;8168;49.036;7.690;2022-11-30T01:10:31;17.47;;;7.50;;
16127;SDS011;8168;49.036;7.690;2022-11-30T01:13:03;15.00;;;6.60;;
16127;SDS011;8168;49.036;7.690;2022-11-30T01:15:35;16.87;;;7.03;;
16127;SDS011;8168;49.036;7.690;2022-11-30T01:18:07;12.10;;;6.33;;
16127;SDS011;8168;49.036;7.690;2022-11-30T01:20:39;14.37;;;6.67;;
16127;SDS011;8168;49.036;7.690;2022-11-30T01:23:11;13.93;;;6.47;;
16127;SDS011;8168;49.036;7.690;2022-11-30T01:25:41;21.70;;;7.83;;
16127;SDS011;8168;49.036;7.690;2022-11-30T01:28:21;16.00;;;5.97;;
16127;SDS011;8168;49.036;7.690;2022-11-30T01:30:56;18.30;;;7.17;;
16127;SDS011;8168;49.036;7.690;2022-11-30T01:33:32;23.37;;;7.83;;
16127;SDS011;8168;49.036;7.690;2022-11-30T01:36:05;14.10;;;6.70;;
16127;SDS011;8168;49.036;7.690;2022-11-30T01:38:39;10.70;;;5.90;;
16127;SDS011;8168;49.036;7.690;2022-11-30T01:41:12;16.77;;;6.80;;
16127;SDS011;8168;49.036;7.690;2022-11-30T01:43:48;16.43;;;6.53;;
16127;SDS011;8168;49.036;7.690;2022-11-30T01:46:28;18.60;;;7.07;;
16127;SDS011;8168;49.036;7.690;2022-11-30T01:51:39;10.10;;;5.73;;
16127;SDS011;8168;49.036;7.690;2022-11-30T01:54:15;14.60;;;5.70;;
16127;SDS011;8168;49.036;7.690;2022-11-30T01:56:51;14.77;;;6.60;;
16127;SDS011;8168;49.036;7.690;2022-11-30T01:59:24;15.73;;;7.60;;
16127;SDS011;8168;49.036;7.690;2022-11-30T02:01:55;16.80;;;8.10;;
16127;SDS011;8168;49.036;7.690;2022-11-30T02:04:27;11.57;;;6.23;;
16127;SDS011;8168;49.036;7.690;2022-11-30T02:07:00;16.37;;;7.30;;
16127;SDS011;8168;49.036;7.690;2022-11-30T02:09:35;15.17;;;6.77;;
16127;SDS011;8168;49.036;7.690;2022-11-30T02:12:18;15.27;;;7.07;;
16127;SDS011;8168;49.036;7.690;2022-11-30T02:14:56;19.67;;;7.23;;
16127;SDS011;8168;49.036;7.690;2022-11-30T02:17:35;22.03;;;7.57;;
16127;SDS011;8168;49.036;7.690;2022-11-30T02:23:16;11.87;;;6.93;;
16127;SDS011;8168;49.036;7.690;2022-11-30T02:26:07;19.60;;;7.27;;
16127;SDS011;8168;49.036;7.690;2022-11-30T02:31:15;15.27;;;6.40;;
16127;SDS011;8168;49.036;7.690;2022-11-30T02:33:50;16.23;;;6.40;;
16127;SDS011;8168;49.036;7.690;2022-11-30T02:36:22;15.07;;;6.33;;
16127;SDS011;8168;49.036;7.690;2022-11-30T02:38:54;13.20;;;6.13;;
16127;SDS011;8168;49.036;7.690;2022-11-30T02:41:25;14.27;;;6.37;;
16127;SDS011;8168;49.036;7.690;2022-11-30T02:44:03;15.10;;;6.53;;
16127;SDS011;8168;49.036;7.690;2022-11-30T02:52:26;11.40;;;6.07;;
16127;SDS011;8168;49.036;7.690;2022-11-30T02:54:58;13.17;;;6.60;;
16127;SDS011;8168;49.036;7.690;2022-11-30T02:57:35;17.33;;;6.80;;
16127;SDS011;8168;49.036;7.690;2022-11-30T03:00:06;15.37;;;6.07;;
16127;SDS011;8168;49.036;7.690;2022-11-30T03:02:39;16.00;;;6.17;;
16127;SDS011;8168;49.036;7.690;2022-11-30T03:05:10;9.07;;;5.67;;
16127;SDS011;8168;49.036;7.690;2022-11-30T03:07:41;11.77;;;5.07;;
16127;SDS011;8168;49.036;7.690;2022-11-30T03:10:11;13.30;;;7.27;;
16127;SDS011;8168;49.036;7.690;2022-11-30T03:12:42;12.93;;;5.90;;
16127;SDS011;8168;49.036;7.690;2022-11-30T03:15:13;13.23;;;6.03;;
16127;SDS011;8168;49.036;7.690;2022-11-30T03:17:43;22.13;;;9.30;;
16127;SDS011;8168;49.036;7.690;2022-11-30T03:20:14;23.67;;;7.37;;
16127;SDS011;8168;49.036;7.690;2022-11-30T03:22:45;18.37;;;7.27;;
16127;SDS011;8168;49.036;7.690;2022-11-30T03:25:15;15.93;;;7.07;;
16127;SDS011;8168;49.036;7.690;2022-11-30T03:27:46;17.60;;;6.83;;
16127;SDS011;8168;49.036;7.690;2022-11-30T03:30:17;15.87;;;6.77;;
16127;SDS011;8168;49.036;7.690;2022-11-30T03:32:47;18.70;;;7.80;;
16127;SDS011;8168;49.036;7.690;2022-11-30T03:35:20;14.97;;;6.93;;
16127;SDS011;8168;49.036;7.690;2022-11-30T03:37:51;16.53;;;7.77;;
16127;SDS011;8168;49.036;7.690;2022-11-30T03:40:21;16.53;;;7.50;;
16127;SDS011;8168;49.036;7.690;2022-11-30T03:42:52;15.73;;;7.00;;
16127;SDS011;8168;49.036;7.690;2022-11-30T03:45:22;21.80;;;9.43;;
16127;SDS011;8168;49.036;7.690;2022-11-30T03:47:53;18.17;;;8.13;;
16127;SDS011;8168;49.036;7.690;2022-11-30T03:50:24;17.33;;;7.70;;
16127;SDS011;8168;49.036;7.690;2022-11-30T03:52:54;16.43;;;6.77;;
16127;SDS011;8168;49.036;7.690;2022-11-30T03:55:25;16.17;;;7.13;;
16127;SDS011;8168;49.036;7.690;2022-11-30T03:57:55;19.60;;;6.80;;
16127;SDS011;8168;49.036;7.690;2022-11-30T04:00:26;23.83;;;7.03;;
16127;SDS011;8168;49.036;7.690;2022-11-30T04:02:56;17.80;;;8.17;;
16127;SDS011;8168;49.036;7.690;2022-11-30T04:05:27;14.73;;;7.97;;
16127;SDS011;8168;49.036;7.690;2022-11-30T04:07:58;17.53;;;7.57;;
16127;SDS011;8168;49.036;7.690;2022-11-30T04:10:28;15.03;;;7.60;;
16127;SDS011;8168;49.036;7.690;2022-11-30T04:12:59;15.87;;;7.07;;
16127;SDS011;8168;49.036;7.690;2022-11-30T04:15:30;18.80;;;7.17;;
16127;SDS011;8168;49.036;7.690;2022-11-30T04:18:00;16.80;;;7.83;;
16127;SDS011;8168;49.036;7.690;2022-11-30T04:20:31;24.30;;;8.03;;
16127;SDS011;8168;49.036;7.690;2022-11-30T04:23:01;14.53;;;7.17;;
16127;SDS011;8168;49.036;7.690;2022-11-30T04:25:32;19.43;;;7.77;;
16127;SDS011;8168;49.036;7.690;2022-11-30T04:28:03;15.27;;;7.20;;
16127;SDS011;8168;49.036;7.690;2022-11-30T04:30:33;18.13;;;7.83;;
16127;SDS011;8168;49.036;7.690;2022-11-30T04:33:05;23.87;;;7.10;;
16127;SDS011;8168;49.036;7.690;2022-11-30T04:35:39;20.67;;;7.20;;
16127;SDS011;8168;49.036;7.690;2022-11-30T04:38:12;15.03;;;8.13;;
16127;SDS011;8168;49.036;7.690;2022-11-30T04:40:43;22.87;;;7.30;;
16127;SDS011;8168;49.036;7.690;2022-11-30T04:43:14;21.97;;;7.43;;
16127;SDS011;8168;49.036;7.690;2022-11-30T04:45:44;20.23;;;8.17;;
16127;SDS011;8168;49.036;7.690;2022-11-30T04:48:16;25.63;;;8.50;;
16127;SDS011;8168;49.036;7.690;2022-11-30T04:50:47;22.90;;;7.87;;
16127;SDS011;8168;49.036;7.690;2022-11-30T04:53:18;16.70;;;8.07;;
16127;SDS011;8168;49.036;7.690;2022-11-30T04:55:48;22.47;;;8.10;;
16127;SDS011;8168;49.036;7.690;2022-11-30T04:58:19;23.37;;;8.47;;
16127;SDS011;8168;49.036;7.690;2022-11-30T05:00:52;20.60;;;9.10;;
16127;SDS011;8168;49.036;7.690;2022-11-30T05:03:23;19.03;;;8.03;;
16127;SDS011;8168;49.036;7.690;2022-11-30T05:05:54;16.87;;;8.37;;
16127;SDS011;8168;49.036;7.690;2022-11-30T05:08:25;19.47;;;7.70;;
16127;SDS011;8168;49.036;7.690;2022-11-30T05:10:55;20.87;;;8.63;;
16127;SDS011;8168;49.036;7.690;2022-11-30T05:13:26;19.43;;;8.10;;
16127;SDS011;8168;49.036;7.690;2022-11-30T05:15:56;19.63;;;7.93;;
16127;SDS011;8168;49.036;7.690;2022-11-30T05:18:27;17.10;;;6.97;;
16127;SDS011;8168;49.036;7.690;2022-11-30T05:20:58;14.27;;;6.70;;
16127;SDS011;8168;49.036;7.690;2022-11-30T05:23:29;17.57;;;6.77;;
16127;SDS011;8168;49.036;7.690;2022-11-30T05:26:02;14.47;;;6.73;;
16127;SDS011;8168;49.036;7.690;2022-11-30T05:28:33;16.10;;;6.87;;
16127;SDS011;8168;49.036;7.690;2022-11-30T05:31:05;15.27;;;6.57;;
16127;SDS011;8168;49.036;7.690;2022-11-30T05:33:36;23.10;;;7.53;;
16127;SDS011;8168;49.036;7.690;2022-11-30T05:36:07;19.83;;;7.27;;
16127;SDS011;8168;49.036;7.690;2022-11-30T05:38:37;17.47;;;7.93;;
16127;SDS011;8168;49.036;7.690;2022-11-30T05:41:08;17.50;;;7.90;;
16127;SDS011;8168;49.036;7.690;2022-11-30T05:43:39;20.77;;;8.87;;
16127;SDS011;8168;49.036;7.690;2022-11-30T05:46:10;23.70;;;8.73;;
16127;SDS011;8168;49.036;7.690;2022-11-30T05:48:40;23.10;;;8.67;;
16127;SDS011;8168;49.036;7.690;2022-11-30T05:51:12;18.87;;;8.23;;
16127;SDS011;8168;49.036;7.690;2022-11-30T05:53:44;19.97;;;7.90;;
16127;SDS011;8168;49.036;7.690;2022-11-30T05:56:17;21.23;;;8.80;;
16127;SDS011;8168;49.036;7.690;2022-11-30T05:58:49;21.43;;;7.83;;
16127;SDS011;8168;49.036;7.690;2022-11-30T06:01:26;19.17;;;9.30;;
16127;SDS011;8168;49.036;7.690;2022-11-30T06:03:57;18.97;;;8.30;;
16127;SDS011;8168;49.036;7.690;2022-11-30T06:06:28;23.27;;;8.57;;
16127;SDS011;8168;49.036;7.690;2022-11-30T06:08:58;17.50;;;7.50;;
16127;SDS011;8168;49.036;7.690;2022-11-30T06:11:29;16.00;;;7.83;;
16127;SDS011;8168;49.036;7.690;2022-11-30T06:14:00;25.47;;;9.87;;
16127;SDS011;8168;49.036;7.690;2022-11-30T06:16:30;21.27;;;9.23;;
16127;SDS011;8168;49.036;7.690;2022-11-30T06:19:01;23.57;;;10.10;;
16127;SDS011;8168;49.036;7.690;2022-11-30T06:21:32;22.60;;;10.23;;
16127;SDS011;8168;49.036;7.690;2022-11-30T06:24:03;21.53;;;9.73;;
16127;SDS011;8168;49.036;7.690;2022-11-30T06:26:37;21.43;;;10.60;;
16127;SDS011;8168;49.036;7.690;2022-11-30T06:29:08;21.77;;;9.80;;
16127;SDS011;8168;49.036;7.690;2022-11-30T06:31:39;20.73;;;9.07;;
16127;SDS011;8168;49.036;7.690;2022-11-30T06:34:10;23.97;;;10.70;;
16127;SDS011;8168;49.036;7.690;2022-11-30T06:36:40;19.47;;;9.17;;
16127;SDS011;8168;49.036;7.690;2022-11-30T06:39:11;18.80;;;9.47;;
16127;SDS011;8168;49.036;7.690;2022-11-30T06:41:42;21.77;;;8.90;;
16127;SDS011;8168;49.036;7.690;2022-11-30T06:44:12;16.87;;;8.60;;
16127;SDS011;8168;49.036;7.690;2022-11-30T06:46:43;19.93;;;8.33;;
16127;SDS011;8168;49.036;7.690;2022-11-30T06:49:13;15.03;;;7.63;;
16127;SDS011;8168;49.036;7.690;2022-11-30T06:51:44;16.77;;;6.97;;
16127;SDS011;8168;49.036;7.690;2022-11-30T06:54:15;18.90;;;7.47;;
16127;SDS011;8168;49.036;7.690;2022-11-30T06:56:46;17.97;;;7.67;;
16127;SDS011;8168;49.036;7.690;2022-11-30T06:59:17;17.37;;;7.87;;
16127;SDS011;8168;49.036;7.690;2022-11-30T07:01:47;19.17;;;8.27;;
16127;SDS011;8168;49.036;7.690;2022-11-30T07:04:18;17.07;;;8.23;;
16127;SDS011;8168;49.036;7.690;2022-11-30T07:06:49;18.30;;;8.27;;
16127;SDS011;8168;49.036;7.690;2022-11-30T07:09:19;21.47;;;8.37;;
16127;SDS011;8168;49.036;7.690;2022-11-30T07:11:50;21.30;;;8.83;;
16127;SDS011;8168;49.036;7.690;2022-11-30T07:14:20;17.30;;;9.03;;
16127;SDS011;8168;49.036;7.690;2022-11-30T07:16:51;20.50;;;8.33;;
16127;SDS011;8168;49.036;7.690;2022-11-30T07:19:22;17.47;;;8.40;;
16127;SDS011;8168;49.036;7.690;2022-11-30T07:21:52;16.77;;;8.63;;
16127;SDS011;8168;49.036;7.690;2022-11-30T07:24:23;22.30;;;9.60;;
16127;SDS011;8168;49.036;7.690;2022-11-30T07:27:12;17.77;;;8.33;;
16127;SDS011;8168;49.036;7.690;2022-11-30T07:29:43;19.30;;;9.37;;
16127;SDS011;8168;49.036;7.690;2022-11-30T07:32:13;18.03;;;8.53;;
16127;SDS011;8168;49.036;7.690;2022-11-30T07:34:44;19.93;;;8.60;;
16127;SDS011;8168;49.036;7.690;2022-11-30T07:37:15;14.20;;;7.57;;
16127;SDS011;8168;49.036;7.690;2022-11-30T07:39:45;16.60;;;8.03;;
16127;SDS011;8168;49.036;7.690;2022-11-30T07:42:16;18.73;;;8.27;;
16127;SDS011;8168;49.036;7.690;2022-11-30T07:44:47;20.33;;;7.90;;
16127;SDS011;8168;49.036;7.690;2022-11-30T07:47:18;18.00;;;8.30;;
16127;SDS011;8168;49.036;7.690;2022-11-30T07:49:49;18.97;;;8.10;;
16127;SDS011;8168;49.036;7.690;2022-11-30T07:52:19;19.10;;;9.63;;
16127;SDS011;8168;49.036;7.690;2022-11-30T07:54:50;23.87;;;11.43;;
16127;SDS011;8168;49.036;7.690;2022-11-30T07:57:21;24.17;;;11.47;;
16127;SDS011;8168;49.036;7.690;2022-11-30T07:59:51;33.30;;;11.63;;
16127;SDS011;8168;49.036;7.690;2022-11-30T08:02:22;31.97;;;12.83;;
16127;SDS011;8168;49.036;7.690;2022-11-30T08:04:53;23.70;;;11.10;;
16127;SDS011;8168;49.036;7.690;2022-11-30T08:07:26;22.50;;;11.20;;
16127;SDS011;8168;49.036;7.690;2022-11-30T08:09:57;27.50;;;12.23;;
16127;SDS011;8168;49.036;7.690;2022-11-30T08:12:27;29.87;;;11.70;;
16127;SDS011;8168;49.036;7.690;2022-11-30T08:14:58;32.47;;;12.73;;
16127;SDS011;8168;49.036;7.690;2022-11-30T08:17:29;21.60;;;10.70;;
16127;SDS011;8168;49.036;7.690;2022-11-30T08:19:59;21.67;;;9.30;;
16127;SDS011;8168;49.036;7.690;2022-11-30T08:22:30;20.73;;;9.00;;
16127;SDS011;8168;49.036;7.690;2022-11-30T08:25:01;24.00;;;10.43;;
16127;SDS011;8168;49.036;7.690;2022-11-30T08:27:32;21.40;;;10.00;;
16127;SDS011;8168;49.036;7.690;2022-11-30T08:30:03;17.20;;;9.40;;
16127;SDS011;8168;49.036;7.690;2022-11-30T08:32:34;26.70;;;9.80;;
16127;SDS011;8168;49.036;7.690;2022-11-30T08:35:04;20.50;;;9.60;;
16127;SDS011;8168;49.036;7.690;2022-11-30T08:37:36;27.83;;;10.13;;
16127;SDS011;8168;49.036;7.690;2022-11-30T08:40:07;21.40;;;8.93;;
16127;SDS011;8168;49.036;7.690;2022-11-30T08:42:37;18.90;;;9.37;;
16127;SDS011;8168;49.036;7.690;2022-11-30T08:45:08;16.77;;;9.60;;
16127;SDS011;8168;49.036;7.690;2022-11-30T08:47:39;31.13;;;13.30;;
16127;SDS011;8168;49.036;7.690;2022-11-30T08:50:10;27.73;;;15.10;;
16127;SDS011;8168;49.036;7.690;2022-11-30T08:52:40;26.80;;;13.03;;
16127;SDS011;8168;49.036;7.690;2022-11-30T08:55:11;28.93;;;12.80;;
16127;SDS011;8168;49.036;7.690;2022-11-30T08:57:42;36.43;;;15.40;;
16127;SDS011;8168;49.036;7.690;2022-11-30T09:00:12;26.03;;;12.57;;
16127;SDS011;8168;49.036;7.690;2022-11-30T09:02:44;37.40;;;16.23;;
16127;SDS011;8168;49.036;7.690;2022-11-30T09:05:14;37.73;;;17.80;;
16127;SDS011;8168;49.036;7.690;2022-11-30T09:07:45;33.37;;;16.23;;
16127;SDS011;8168;49.036;7.690;2022-11-30T09:10:15;35.93;;;17.30;;
16127;SDS011;8168;49.036;7.690;2022-11-30T09:12:46;40.93;;;17.57;;
16127;SDS011;8168;49.036;7.690;2022-11-30T09:15:17;27.07;;;13.30;;
16127;SDS011;8168;49.036;7.690;2022-11-30T09:17:47;32.20;;;13.93;;
16127;SDS011;8168;49.036;7.690;2022-11-30T09:20:18;23.83;;;11.83;;
16127;SDS011;8168;49.036;7.690;2022-11-30T09:22:49;22.27;;;11.03;;
16127;SDS011;8168;49.036;7.690;2022-11-30T09:25:19;22.17;;;11.57;;
16127;SDS011;8168;49.036;7.690;2022-11-30T09:27:50;21.20;;;12.07;;
16127;SDS011;8168;49.036;7.690;2022-11-30T09:30:20;21.23;;;10.57;;
16127;SDS011;8168;49.036;7.690;2022-11-30T09:32:51;26.23;;;11.13;;
16127;SDS011;8168;49.036;7.690;2022-11-30T09:35:22;19.40;;;8.80;;
16127;SDS011;8168;49.036;7.690;2022-11-30T09:37:52;22.40;;;9.50;;
16127;SDS011;8168;49.036;7.690;2022-11-30T09:40:23;22.60;;;9.23;;
16127;SDS011;8168;49.036;7.690;2022-11-30T09:43:29;14.93;;;8.27;;
16127;SDS011;8168;49.036;7.690;2022-11-30T09:46:02;17.30;;;9.10;;
16127;SDS011;8168;49.036;7.690;2022-11-30T09:48:43;21.73;;;9.60;;
16127;SDS011;8168;49.036;7.690;2022-11-30T09:51:27;18.70;;;9.80;;
16127;SDS011;8168;49.036;7.690;2022-11-30T09:54:08;16.53;;;8.47;;
16127;SDS011;8168;49.036;7.690;2022-11-30T09:56:49;28.00;;;13.37;;
16127;SDS011;8168;49.036;7.690;2022-11-30T09:59:21;25.47;;;13.17;;
16127;SDS011;8168;49.036;7.690;2022-11-30T10:01:59;37.90;;;18.40;;
16127;SDS011;8168;49.036;7.690;2022-11-30T10:04:42;24.00;;;13.67;;
16127;SDS011;8168;49.036;7.690;2022-11-30T10:07:20;23.63;;;11.77;;
16127;SDS011;8168;49.036;7.690;2022-11-30T10:18:43;14.13;;;7.93;;
16127;SDS011;8168;49.036;7.690;2022-11-30T10:21:24;22.10;;;9.97;;
16127;SDS011;8168;49.036;7.690;2022-11-30T10:26:53;22.77;;;10.13;;
16127;SDS011;8168;49.036;7.690;2022-11-30T10:29:28;19.30;;;8.50;;
16127;SDS011;8168;49.036;7.690;2022-11-30T10:32:15;16.93;;;8.40;;
16127;SDS011;8168;49.036;7.690;2022-11-30T10:34:56;16.37;;;9.60;;
16127;SDS011;8168;49.036;7.690;2022-11-30T10:38:38;18.37;;;7.97;;
16127;SDS011;8168;49.036;7.690;2022-11-30T10:43:53;21.73;;;9.60;;
16127;SDS011;8168;49.036;7.690;2022-11-30T10:46:42;21.47;;;9.27;;
16127;SDS011;8168;49.036;7.690;2022-11-30T10:49:32;19.53;;;9.83;;
16127;SDS011;8168;49.036;7.690;2022-11-30T10:52:06;18.97;;;9.80;;
16127;SDS011;8168;49.036;7.690;2022-11-30T10:54:38;18.13;;;9.67;;
16127;SDS011;8168;49.036;7.690;2022-11-30T10:57:09;22.30;;;10.83;;
16127;SDS011;8168;49.036;7.690;2022-11-30T10:59:49;23.20;;;9.53;;
16127;SDS011;8168;49.036;7.690;2022-11-30T11:10:42;23.30;;;10.33;;
16127;SDS011;8168;49.036;7.690;2022-11-30T11:13:14;24.93;;;10.47;;
16127;SDS011;8168;49.036;7.690;2022-11-30T11:16:06;20.50;;;10.50;;
16127;SDS011;8168;49.036;7.690;2022-11-30T11:18:54;19.87;;;10.10;;
16127;SDS011;8168;49.036;7.690;2022-11-30T11:21:26;24.83;;;12.40;;
16127;SDS011;8168;49.036;7.690;2022-11-30T11:23:57;21.53;;;11.43;;
16127;SDS011;8168;49.036;7.690;2022-11-30T11:26:28;20.00;;;10.13;;
16127;SDS011;8168;49.036;7.690;2022-11-30T11:28:59;18.30;;;10.53;;
16127;SDS011;8168;49.036;7.690;2022-11-30T11:34:53;24.37;;;12.63;;
16127;SDS011;8168;49.036;7.690;2022-11-30T11:37:04;25.17;;;15.53;;
16127;SDS011;8168;49.036;7.690;2022-11-30T11:39:36;21.07;;;10.23;;
16127;SDS011;8168;49.036;7.690;2022-11-30T11:42:11;22.43;;;10.10;;
16127;SDS011;8168;49.036;7.690;2022-11-30T11:44:57;22.50;;;10.63;;
16127;SDS011;8168;49.036;7.690;2022-11-30T11:47:39;29.17;;;14.27;;
16127;SDS011;8168;49.036;7.690;2022-11-30T11:50:23;16.10;;;9.30;;
16127;SDS011;8168;49.036;7.690;2022-11-30T11:53:13;18.97;;;8.87;;
16127;SDS011;8168;49.036;7.690;2022-11-30T11:55:54;13.13;;;8.30;;
16127;SDS011;8168;49.036;7.690;2022-11-30T11:58:46;15.27;;;9.10;;
16127;SDS011;8168;49.036;7.690;2022-11-30T12:01:32;21.83;;;10.30;;
16127;SDS011;8168;49.036;7.690;2022-11-30T12:04:12;17.93;;;10.97;;
16127;SDS011;8168;49.036;7.690;2022-11-30T12:06:46;21.57;;;11.87;;
16127;SDS011;8168;49.036;7.690;2022-11-30T12:09:23;15.07;;;8.37;;
16127;SDS011;8168;49.036;7.690;2022-11-30T12:11:57;12.70;;;7.47;;
16127;SDS011;8168;49.036;7.690;2022-11-30T12:14:28;17.13;;;8.90;;
16127;SDS011;8168;49.036;7.690;2022-11-30T12:22:51;15.90;;;8.57;;
16127;SDS011;8168;49.036;7.690;2022-11-30T12:25:33;16.10;;;9.77;;
16127;SDS011;8168;49.036;7.690;2022-11-30T12:28:30;16.10;;;9.83;;
16127;SDS011;8168;49.036;7.690;2022-11-30T12:31:12;15.93;;;9.33;;
16127;SDS011;8168;49.036;7.690;2022-11-30T12:39:13;13.93;;;9.63;;
16127;SDS011;8168;49.036;7.690;2022-11-30T12:42:36;24.50;;;16.60;;
16127;SDS011;8168;49.036;7.690;2022-11-30T13:04:26;21.07;;;10.37;;
16127;SDS011;8168;49.036;7.690;2022-11-30T13:07:19;19.67;;;11.67;;
16127;SDS011;8168;49.036;7.690;2022-11-30T13:10:27;21.83;;;11.43;;
16127;SDS011;8168;49.036;7.690;2022-11-30T13:13:12;23.77;;;10.80;;
16127;SDS011;8168;49.036;7.690;2022-11-30T13:15:48;21.63;;;11.70;;
16127;SDS011;8168;49.036;7.690;2022-11-30T13:18:19;21.50;;;11.10;;
16127;SDS011;8168;49.036;7.690;2022-11-30T13:20:54;19.10;;;11.17;;
16127;SDS011;8168;49.036;7.690;2022-11-30T13:26:43;20.80;;;11.20;;
16127;SDS011;8168;49.036;7.690;2022-11-30T13:29:42;18.13;;;10.33;;
16127;SDS011;8168;49.036;7.690;2022-11-30T13:32:23;34.10;;;13.47;;
16127;SDS011;8168;49.036;7.690;2022-11-30T13:35:06;22.00;;;10.90;;
16127;SDS011;8168;49.036;7.690;2022-11-30T13:38:15;25.20;;;12.07;;
16127;SDS011;8168;49.036;7.690;2022-11-30T13:40:53;26.73;;;10.90;;
16127;SDS011;8168;49.036;7.690;2022-11-30T13:43:36;17.97;;;10.73;;
16127;SDS011;8168;49.036;7.690;2022-11-30T13:46:14;25.17;;;12.63;;
16127;SDS011;8168;49.036;7.690;2022-11-30T13:48:48;23.70;;;11.23;;
16127;SDS011;8168;49.036;7.690;2022-11-30T13:51:38;22.53;;;10.80;;
16127;SDS011;8168;49.036;7.690;2022-11-30T14:00:00;22.13;;;12.40;;
16127;SDS011;8168;49.036;7.690;2022-11-30T14:02:51;25.93;;;13.67;;
16127;SDS011;8168;49.036;7.690;2022-11-30T14:05:24;25.17;;;13.73;;
16127;SDS011;8168;49.036;7.690;2022-11-30T14:10:41;26.00;;;13.93;;
16127;SDS011;8168;49.036;7.690;2022-11-30T14:15:51;41.70;;;22.50;;
16127;SDS011;8168;49.036;7.690;2022-11-30T14:18:32;26.60;;;13.90;;
16127;SDS011;8168;49.036;7.690;2022-11-30T14:21:13;20.13;;;9.77;;
16127;SDS011;8168;49.036;7.690;2022-11-30T14:26:26;18.67;;;10.43;;
16127;SDS011;8168;49.036;7.690;2022-11-30T14:29:03;19.77;;;11.03;;
16127;SDS011;8168;49.036;7.690;2022-11-30T14:34:30;25.30;;;12.43;;
16127;SDS011;8168;49.036;7.690;2022-11-30T14:37:25;19.60;;;10.33;;
16127;SDS011;8168;49.036;7.690;2022-11-30T14:40:02;20.90;;;11.73;;
16127;SDS011;8168;49.036;7.690;2022-11-30T14:42:35;23.73;;;12.67;;
16127;SDS011;8168;49.036;7.690;2022-11-30T14:45:13;18.27;;;10.43;;
16127;SDS011;8168;49.036;7.690;2022-11-30T14:48:08;22.83;;;13.00;;
16127;SDS011;8168;49.036;7.690;2022-11-30T14:50:54;18.33;;;10.33;;
16127;SDS011;8168;49.036;7.690;2022-11-30T14:56:51;20.00;;;8.63;;
16127;SDS011;8168;49.036;7.690;2022-11-30T14:59:47;21.40;;;12.10;;
16127;SDS011;8168;49.036;7.690;2022-11-30T15:04:55;18.97;;;10.97;;
16127;SDS011;8168;49.036;7.690;2022-11-30T15:07:27;16.67;;;9.90;;
16127;SDS011;8168;49.036;7.690;2022-11-30T15:10:02;17.90;;;10.77;;
16127;SDS011;8168;49.036;7.690;2022-11-30T15:12:37;18.63;;;12.13;;
16127;SDS011;8168;49.036;7.690;2022-11-30T15:15:14;18.10;;;11.80;;
16127;SDS011;8168;49.036;7.690;2022-11-30T15:17:54;22.07;;;13.83;;
16127;SDS011;8168;49.036;7.690;2022-11-30T15:20:34;22.60;;;13.50;;
16127;SDS011;8168;49.036;7.690;2022-11-30T15:23:11;16.03;;;11.23;;
16127;SDS011;8168;49.036;7.690;2022-11-30T15:25:47;16.47;;;10.47;;
16127;SDS011;8168;49.036;7.690;2022-11-30T15:28:38;18.63;;;11.70;;
16127;SDS011;8168;49.036;7.690;2022-11-30T15:31:13;18.60;;;10.83;;
16127;SDS011;8168;49.036;7.690;2022-11-30T15:33:46;14.67;;;9.23;;
16127;SDS011;8168;49.036;7.690;2022-11-30T15:36:18;15.97;;;9.77;;
16127;SDS011;8168;49.036;7.690;2022-11-30T15:38:49;15.40;;;9.77;;
16127;SDS011;8168;49.036;7.690;2022-11-30T15:41:22;15.13;;;8.97;;
16127;SDS011;8168;49.036;7.690;2022-11-30T15:43:55;14.97;;;9.77;;
16127;SDS011;8168;49.036;7.690;2022-11-30T15:49:49;14.83;;;8.50;;
16127;SDS011;8168;49.036;7.690;2022-11-30T15:52:05;11.73;;;8.60;;
16127;SDS011;8168;49.036;7.690;2022-11-30T15:54:50;12.27;;;8.43;;
16127;SDS011;8168;49.036;7.690;2022-11-30T15:57:23;11.50;;;7.97;;
16127;SDS011;8168;49.036;7.690;2022-11-30T16:02:44;13.23;;;7.97;;
16127;SDS011;8168;49.036;7.690;2022-11-30T16:07:56;12.50;;;7.23;;
16127;SDS011;8168;49.036;7.690;2022-11-30T16:10:35;13.73;;;7.97;;
16127;SDS011;8168;49.036;7.690;2022-11-30T16:13:14;13.27;;;7.37;;
16127;SDS011;8168;49.036;7.690;2022-11-30T16:15:49;10.83;;;6.93;;
16127;SDS011;8168;49.036;7.690;2022-11-30T16:18:24;10.73;;;7.10;;
16127;SDS011;8168;49.036;7.690;2022-11-30T16:20:57;11.53;;;7.40;;
16127;SDS011;8168;49.036;7.690;2022-11-30T16:23:29;14.00;;;7.50;;
16127;SDS011;8168;49.036;7.690;2022-11-30T16:26:05;10.97;;;7.47;;
16127;SDS011;8168;49.036;7.690;2022-11-30T16:28:39;14.13;;;7.73;;
16127;SDS011;8168;49.036;7.690;2022-11-30T16:31:13;14.83;;;8.70;;
16127;SDS011;8168;49.036;7.690;2022-11-30T16:33:47;12.80;;;7.83;;
16127;SDS011;8168;49.036;7.690;2022-11-30T16:36:19;11.83;;;7.43;;
16127;SDS011;8168;49.036;7.690;2022-11-30T16:38:50;12.77;;;7.93;;
16127;SDS011;8168;49.036;7.690;2022-11-30T16:41:23;16.47;;;8.67;;
16127;SDS011;8168;49.036;7.690;2022-11-30T16:43:55;15.43;;;9.47;;
16127;SDS011;8168;49.036;7.690;2022-11-30T16:46:27;16.07;;;8.40;;
16127;SDS011;8168;49.036;7.690;2022-11-30T16:48:58;17.07;;;9.77;;
16127;SDS011;8168;49.036;7.690;2022-11-30T16:51:29;17.93;;;11.67;;
16127;SDS011;8168;49.036;7.690;2022-11-30T16:54:03;16.33;;;9.73;;
16127;SDS011;8168;49.036;7.690;2022-11-30T16:56:34;9.37;;;7.03;;
16127;SDS011;8168;49.036;7.690;2022-11-30T16:59:04;13.77;;;8.60;;
16127;SDS011;8168;49.036;7.690;2022-11-30T17:01:37;12.40;;;7.67;;
16127;SDS011;8168;49.036;7.690;2022-11-30T17:04:12;9.97;;;6.77;;
16127;SDS011;8168;49.036;7.690;2022-11-30T17:06:59;14.67;;;7.83;;
16127;SDS011;8168;49.036;7.690;2022-11-30T17:09:30;14.17;;;7.67;;